Main page
METAR-TAF:

METAR-TAF

Airports :

Base de Almagro

Almagro, Spain

latitude: 38-57-11N, longitude: 3-44-29W, elevation: 629 m

Current weather observation

The report was made 20 hours and 55 minutes ago, at 19:00 UTC
Wind 7 kt from the East/Northeast, varying between North/Northeast and East/Southeast
Temperature 5°C
Humidity 81%
Pressure 1012 hPa
Visibility 10 km or more
Broken clouds at a height of 1800 ft

METAR: LEAO 271900Z 06007KT 020V110 9999 BKN018 05/02 Q1012

Time: 16:55 (15:55 UTC)

Forecast

The report was made 1 hour and 55 minutes ago, at 14:00 UTC
Forecast valid from 28 at 15 UTC to 28 at 24 UTC
Wind 5 kt from variable directions
Visibility 10 km or more
Few clouds at a height of 4500 ft
Probability 40% :
Temporary
from 28 at 15 UTC to 28 at 19 UTC
Wind 10 kt from the East

TAF: LEAO 281400Z 2815/2824 VRB05KT 9999 FEW045 PROB40 TEMPO 2815/2819 09010KT

Weather observations and forecasts of more than 4000 airports (METAR and TAF reports).

The available stations are represented by yellow and red dots on the map.

Hover mouse over dot to see the name of the station.

Then click to see weather observations and forecasts.

To change the map : click on the green buttons with a black cross to zoom in, on the green button with a dash to zoom out, or on the green arrows for adjacent maps.


METAR-TAF: